Список аэропортов
Фактическая погода:

24 июня, 23:30
Температура: +25°C (+25.0*)
Ветер: юго-западный 2 м/с
Давление: *757 мм
Без существ. явл.
Время (МСК)Темп. СВетерВлажностьДавлениеОблачностьОсадки
21:00+26Штиль 72%1009 гПаясно
22:00+25Ю, 1 м/с78%1009 гПаясно
23:00+24Ю, 1 м/с84%1009 гПаясно
25 июня
00:00+24Ю, 1 м/с88%1009 гПаясно
01:00+23ЮЗ, 1 м/с90%1009 гПаясно
02:00+23З, 2 м/с91%1008 гПаясно
03:00+23З, 2 м/с91%1008 гПаясно
04:00+22СЗ, 1 м/с92%1008 гПаясно
05:00+22З, 1 м/с94%1008 гПаясно
06:00+22З, 1 м/с95%1008 гПамалооблачно
07:00+23З, 1 м/с91%1008 гПамалооблачно
08:00+25Штиль 84%1008 гПамалооблачно
09:00+26В, 1 м/с76%1008 гПаясно
10:00+27ЮВ, 2 м/с72%1009 гПамалооблачно
11:00+28ЮВ, 4 м/с68%1009 гПаясно
12:00+29Ю, 5 м/с65%1008 гПаясно
13:00+29Ю, 7 м/с65%1008 гПаясно
14:00+29Ю, 8 м/с64%1008 гПаясно
15:00+29Ю, 8 м/с65%1008 гПаясно
16:00+29Ю, 9 м/с68%1008 гПаясно
17:00+29Ю, 8 м/с67%1007 гПамалооблачно
18:00+28Ю, 5 м/с70%1007 гПас прояснениямидождь
19:00+28Ю, 2 м/с70%1008 гПаясно
20:00+27Ю, 2 м/с71%1008 гПаясно
21:00+26Ю, 1 м/с76%1008 гПаясно
22:00+25Штиль 79%1009 гПаясно
23:00+24Штиль 81%1009 гПаясно
26 июня
00:00+24Штиль 84%1009 гПаясно
01:00+23З, 1 м/с86%1008 гПаясно
02:00+23З, 1 м/с88%1008 гПаясно
03:00+22З, 2 м/с88%1008 гПаясно
04:00+22СЗ, 2 м/с86%1008 гПаясно
05:00+21СЗ, 2 м/с84%1008 гПаясно
06:00+21СЗ, 2 м/с84%1008 гПаясно
07:00+23СЗ, 2 м/с70%1008 гПаясно
08:00+25З, 1 м/с58%1008 гПаясно
09:00+26Ю, 2 м/с60%1009 гПаясно
10:00+27ЮВ, 3 м/с61%1009 гПаясно
11:00+28ЮВ, 4 м/с63%1009 гПаясно
12:00+28ЮВ, 4 м/с59%1009 гПаясно
13:00+28ЮВ, 5 м/с57%1009 гПаясно
14:00+28Ю, 6 м/с58%1009 гПаясно
15:00+28Ю, 6 м/с58%1008 гПаясно
16:00+28Ю, 6 м/с58%1008 гПаясно
17:00+28Ю, 6 м/с59%1008 гПаясно
18:00+28Ю, 6 м/с62%1008 гПаясно
19:00+27Ю, 4 м/с64%1008 гПаясно
20:00+27Ю, 2 м/с65%1008 гПаясно
21:00+26З, 1 м/с65%1009 гПаясно